createdAt,value
2023-05-11T00:01:11.365Z,85.50
2023-05-11T00:03:38.563Z,85.50
2023-05-11T00:06:05.583Z,85.40
2023-05-11T00:08:32.980Z,85.30
2023-05-11T00:11:02.697Z,85.30
2023-05-11T00:13:29.664Z,85.30
2023-05-11T00:15:56.992Z,85.40
2023-05-11T00:18:23.961Z,85.30
2023-05-11T00:20:51.822Z,85.40
2023-05-11T00:23:18.558Z,85.30
2023-05-11T00:25:46.312Z,85.30
2023-05-11T00:28:13.826Z,85.30
2023-05-11T00:30:41.384Z,85.20
2023-05-11T00:33:08.184Z,85.20
2023-05-11T00:35:35.244Z,85.10
2023-05-11T00:38:02.147Z,85.00
2023-05-11T00:40:32.279Z,85.00
2023-05-11T00:43:02.247Z,84.90
2023-05-11T00:45:31.753Z,84.90
2023-05-11T00:48:01.877Z,84.90
2023-05-11T00:50:29.907Z,84.90
2023-05-11T00:52:58.765Z,85.00
2023-05-11T00:55:26.539Z,85.00
2023-05-11T00:57:53.485Z,84.90
2023-05-11T01:00:21.924Z,85.00
2023-05-11T01:02:50.338Z,85.00
2023-05-11T01:05:19.904Z,84.90
2023-05-11T01:08:01.656Z,84.90
2023-05-11T01:10:42.874Z,85.00
2023-05-11T01:13:30.727Z,84.90
2023-05-11T01:15:58.139Z,84.90
2023-05-11T01:18:54.439Z,84.90
2023-05-11T01:21:21.877Z,85.40
2023-05-11T01:24:03.972Z,85.40
2023-05-11T01:26:31.704Z,85.10
2023-05-11T01:29:11.576Z,84.90
2023-05-11T01:31:42.653Z,84.90
2023-05-11T01:34:19.463Z,84.90
2023-05-11T01:37:06.558Z,84.80
2023-05-11T01:39:37.434Z,84.80
2023-05-11T01:42:10.342Z,84.80
2023-05-11T01:44:42.367Z,84.80
2023-05-11T01:47:12.078Z,84.80
2023-05-11T01:49:43.044Z,84.80
2023-05-11T01:52:11.304Z,84.90
2023-05-11T01:54:43.181Z,84.90
2023-05-11T01:57:15.710Z,84.90
2023-05-11T01:59:44.002Z,85.00
2023-05-11T02:02:14.420Z,85.00
2023-05-11T02:04:46.579Z,85.00
2023-05-11T02:07:17.015Z,85.10
2023-05-11T02:09:53.313Z,85.30
2023-05-11T02:12:22.470Z,85.30
2023-05-11T02:14:51.669Z,85.30
2023-05-11T02:17:22.453Z,85.30
2023-05-11T02:19:50.675Z,85.30
2023-05-11T02:22:23.558Z,85.40
2023-05-11T02:24:50.736Z,85.30
2023-05-11T02:27:18.906Z,85.40
2023-05-11T02:29:46.653Z,85.50
2023-05-11T02:32:17.964Z,85.50
2023-05-11T02:34:59.384Z,85.60
2023-05-11T02:37:28.019Z,85.50
2023-05-11T02:40:10.944Z,86.10
2023-05-11T02:42:39.343Z,85.60
2023-05-11T02:45:09.500Z,85.60
2023-05-11T02:47:54.284Z,85.60
2023-05-11T02:50:24.306Z,85.60
2023-05-11T02:52:54.848Z,85.70
2023-05-11T02:55:23.229Z,85.60
2023-05-11T02:57:51.199Z,85.60
2023-05-11T03:00:18.585Z,85.50
2023-05-11T03:02:46.873Z,85.60
2023-05-11T03:05:14.646Z,85.50
2023-05-11T03:07:41.894Z,85.50
2023-05-11T03:10:09.514Z,85.60
2023-05-11T03:12:37.002Z,85.60
2023-05-11T03:15:06.162Z,85.60
2023-05-11T03:17:33.945Z,85.70
2023-05-11T03:20:03.644Z,85.70
2023-05-11T03:22:31.758Z,85.60
2023-05-11T03:25:01.815Z,85.60
2023-05-11T03:27:31.029Z,85.60
2023-05-11T03:30:01.489Z,85.60
2023-05-11T03:32:29.729Z,85.50
2023-05-11T03:34:57.009Z,85.50
2023-05-11T03:37:27.332Z,85.50
2023-05-11T03:39:58.775Z,85.50
2023-05-11T03:42:31.035Z,85.50
2023-05-11T03:45:01.105Z,85.40
2023-05-11T03:47:31.133Z,85.20
2023-05-11T03:49:58.877Z,85.10
2023-05-11T03:52:26.645Z,85.10
2023-05-11T03:54:53.773Z,85.20
2023-05-11T03:57:21.301Z,85.20
2023-05-11T03:59:48.211Z,85.10
2023-05-11T04:02:18.499Z,85.20
2023-05-11T04:04:45.624Z,85.20
2023-05-11T04:07:12.768Z,85.30
2023-05-11T04:09:43.912Z,85.40
2023-05-11T04:12:11.418Z,85.50
2023-05-11T04:14:38.132Z,85.50
2023-05-11T04:17:05.488Z,85.50
2023-05-11T04:19:33.109Z,85.40
2023-05-11T04:21:59.816Z,85.60
2023-05-11T04:24:26.761Z,85.50
2023-05-11T04:26:58.583Z,85.60
2023-05-11T04:29:26.617Z,85.60
2023-05-11T04:31:53.618Z,85.70
2023-05-11T04:34:21.411Z,85.70
2023-05-11T04:36:49.682Z,85.90
2023-05-11T04:39:20.358Z,85.90
2023-05-11T04:41:48.108Z,86.00
2023-05-11T04:44:16.544Z,86.10
2023-05-11T04:46:43.356Z,86.10
2023-05-11T04:49:10.627Z,86.20
2023-05-11T04:51:38.722Z,86.10
2023-05-11T04:54:05.431Z,86.10
2023-05-11T04:56:32.354Z,86.10
2023-05-11T04:58:59.566Z,86.10
2023-05-11T05:01:30.370Z,86.10
2023-05-11T05:03:57.480Z,86.00
2023-05-11T05:06:24.795Z,86.10
2023-05-11T05:08:54.304Z,86.10
2023-05-11T05:11:21.982Z,86.30
2023-05-11T05:13:48.770Z,86.30
2023-05-11T05:16:16.748Z,86.40
2023-05-11T05:18:43.800Z,86.40
2023-05-11T05:21:10.771Z,86.50
2023-05-11T05:23:45.661Z,86.50
2023-05-11T05:26:12.432Z,86.60
2023-05-11T05:28:40.054Z,86.60
2023-05-11T05:31:11.579Z,86.60
2023-05-11T05:33:39.628Z,86.70
2023-05-11T05:36:06.535Z,86.90
2023-05-11T05:38:39.430Z,87.00
2023-05-11T05:41:08.205Z,87.50
2023-05-11T05:43:37.744Z,87.00
2023-05-11T05:46:04.776Z,87.00
2023-05-11T05:48:32.207Z,87.20
2023-05-11T05:51:00.326Z,87.30
2023-05-11T05:53:27.124Z,88.00
2023-05-11T05:55:53.966Z,87.40
2023-05-11T05:58:21.159Z,87.50
2023-05-11T06:00:55.467Z,87.70
2023-05-11T06:03:23.104Z,87.90
2023-05-11T06:05:53.248Z,88.10
2023-05-11T06:08:22.943Z,88.30
2023-05-11T06:10:51.443Z,88.90
2023-05-11T06:13:18.299Z,88.40
2023-05-11T06:15:45.198Z,88.50
2023-05-11T06:18:12.187Z,88.60
2023-05-11T06:20:39.852Z,88.50
2023-05-11T06:23:07.076Z,88.40
2023-05-11T06:25:35.173Z,88.50
2023-05-11T06:28:02.391Z,89.20
2023-05-11T06:30:29.785Z,88.70
2023-05-11T06:32:56.635Z,88.80
2023-05-11T06:35:23.905Z,88.90
2023-05-11T06:37:51.181Z,89.00
2023-05-11T06:40:22.735Z,89.10
2023-05-11T06:42:49.585Z,89.00
2023-05-11T06:45:16.573Z,88.60
2023-05-11T06:47:44.257Z,88.20
2023-05-11T06:50:14.254Z,87.90
2023-05-11T06:52:42.173Z,87.70
2023-05-11T06:55:16.608Z,87.70
2023-05-11T06:57:43.391Z,87.50
2023-05-11T07:00:11.252Z,87.50
2023-05-11T07:02:38.666Z,87.80
2023-05-11T07:05:06.066Z,87.90
2023-05-11T07:07:34.654Z,88.00
2023-05-11T07:10:01.865Z,88.40
2023-05-11T07:12:34.074Z,88.50
2023-05-11T07:15:01.548Z,88.40
2023-05-11T07:17:31.524Z,88.50
2023-05-11T07:20:00.271Z,87.90
2023-05-11T07:22:30.650Z,87.20
2023-05-11T07:25:10.349Z,85.90
2023-05-11T07:27:37.650Z,84.50
2023-05-11T07:30:07.681Z,83.70
2023-05-11T07:32:35.855Z,83.10
2023-05-11T07:35:03.096Z,83.20
2023-05-11T07:37:31.293Z,82.90
2023-05-11T07:40:01.394Z,82.60
2023-05-11T07:42:28.435Z,82.80
2023-05-11T07:44:55.326Z,82.50
2023-05-11T07:47:23.560Z,82.20
2023-05-11T07:49:54.474Z,82.10
2023-05-11T07:52:21.552Z,81.80
2023-05-11T07:54:49.916Z,81.20
2023-05-11T07:57:17.789Z,80.80
2023-05-11T07:59:44.619Z,80.70
2023-05-11T08:02:13.403Z,80.30
2023-05-11T08:04:40.802Z,80.50
2023-05-11T08:07:09.260Z,80.50
2023-05-11T08:09:36.819Z,80.60
2023-05-11T08:12:03.857Z,80.60
2023-05-11T08:14:30.732Z,81.00
2023-05-11T08:16:57.650Z,80.10
2023-05-11T08:19:24.455Z,79.80
2023-05-11T08:21:51.552Z,79.10
2023-05-11T08:24:18.435Z,78.40
2023-05-11T08:26:47.327Z,78.30
2023-05-11T08:29:14.526Z,78.30
2023-05-11T08:31:41.550Z,78.00
2023-05-11T08:34:18.231Z,77.70
2023-05-11T08:36:47.133Z,77.20
2023-05-11T08:39:14.081Z,76.70
2023-05-11T08:41:42.634Z,76.50
2023-05-11T08:44:10.401Z,76.50
2023-05-11T08:46:45.471Z,76.40
2023-05-11T08:49:13.690Z,76.00
2023-05-11T08:51:42.431Z,75.70
2023-05-11T08:54:09.654Z,75.30
2023-05-11T08:56:37.806Z,74.80
2023-05-11T08:59:05.348Z,73.60
2023-05-11T09:01:34.231Z,73.30
2023-05-11T09:04:01.426Z,73.30
2023-05-11T09:06:28.913Z,73.40
2023-05-11T09:08:58.008Z,74.00
2023-05-11T09:11:25.876Z,73.60
2023-05-11T09:13:54.022Z,74.00
2023-05-11T09:16:36.260Z,74.40
2023-05-11T09:19:07.942Z,74.60
2023-05-11T09:21:37.009Z,74.50
2023-05-11T09:24:06.409Z,74.30
2023-05-11T09:26:33.965Z,74.00
2023-05-11T09:29:03.209Z,74.00
2023-05-11T09:31:59.778Z,74.20
2023-05-11T09:34:29.218Z,73.50
2023-05-11T09:36:57.367Z,73.60
2023-05-11T09:39:42.295Z,73.20
2023-05-11T09:42:21.629Z,72.50
2023-05-11T09:44:49.357Z,72.40
2023-05-11T09:47:22.407Z,72.00
2023-05-11T09:49:51.097Z,71.40
2023-05-11T09:52:23.212Z,71.40
2023-05-11T09:54:53.840Z,70.90
2023-05-11T09:57:32.113Z,70.80
2023-05-11T10:00:00.409Z,70.90
2023-05-11T10:02:29.559Z,71.00
2023-05-11T10:04:58.779Z,70.20
2023-05-11T10:07:35.738Z,69.70
2023-05-11T10:10:13.715Z,69.30
2023-05-11T10:12:40.706Z,69.00
2023-05-11T10:15:10.210Z,68.90
2023-05-11T10:17:37.809Z,68.30
2023-05-11T10:20:06.658Z,68.30
2023-05-11T10:22:33.942Z,68.60
2023-05-11T10:25:02.939Z,68.60
2023-05-11T10:27:31.318Z,67.70
2023-05-11T10:30:00.121Z,67.50
2023-05-11T10:32:28.533Z,66.90
2023-05-11T10:34:57.166Z,66.20
2023-05-11T10:37:24.479Z,65.80
2023-05-11T10:39:53.010Z,65.70
2023-05-11T10:42:29.368Z,65.40
2023-05-11T10:45:18.183Z,64.90
2023-05-11T10:48:07.593Z,65.10
2023-05-11T10:51:05.977Z,65.70
2023-05-11T10:53:41.850Z,66.40
2023-05-11T10:56:29.914Z,66.80
2023-05-11T10:59:26.736Z,67.20
2023-05-11T11:01:58.007Z,67.70
2023-05-11T11:04:25.865Z,68.10
2023-05-11T11:07:06.874Z,68.50
2023-05-11T11:10:07.339Z,68.80
2023-05-11T11:12:37.132Z,69.10
2023-05-11T11:15:06.823Z,69.40
2023-05-11T11:17:35.856Z,69.70
2023-05-11T11:20:07.732Z,70.00
2023-05-11T11:22:39.137Z,70.20
2023-05-11T11:25:10.874Z,70.40
2023-05-11T11:27:41.030Z,70.80
2023-05-11T11:30:26.645Z,71.30
2023-05-11T11:33:14.936Z,71.80
2023-05-11T11:35:42.574Z,72.10
2023-05-11T11:38:15.116Z,72.50
2023-05-11T11:40:51.880Z,73.00
2023-05-11T11:43:27.138Z,73.50
2023-05-11T11:46:03.664Z,73.70
2023-05-11T11:48:34.745Z,74.30
2023-05-11T11:51:13.047Z,74.60
2023-05-11T11:53:43.443Z,75.20
2023-05-11T11:56:17.296Z,75.20
2023-05-11T11:58:47.613Z,75.80
2023-05-11T12:01:15.652Z,75.90
2023-05-11T12:03:49.511Z,76.20
2023-05-11T12:06:26.690Z,76.60
2023-05-11T12:08:54.474Z,76.60
2023-05-11T12:11:23.221Z,76.70
2023-05-11T12:13:50.824Z,76.90
2023-05-11T12:16:21.350Z,77.00
2023-05-11T12:19:01.428Z,77.30
2023-05-11T12:21:34.232Z,77.30
2023-05-11T12:24:05.032Z,77.40
2023-05-11T12:26:33.834Z,77.70
2023-05-11T12:29:23.252Z,78.00
2023-05-11T12:32:11.975Z,78.40
2023-05-11T12:37:37.541Z,78.80
2023-05-11T12:40:13.595Z,79.00
2023-05-11T12:45:45.767Z,79.60
2023-05-11T12:51:36.025Z,79.90
2023-05-11T12:54:02.755Z,80.00
2023-05-11T12:56:29.496Z,79.80
2023-05-11T12:58:56.271Z,79.60
2023-05-11T13:01:26.700Z,79.50
2023-05-11T13:03:53.690Z,79.10
2023-05-11T13:06:20.701Z,78.80
2023-05-11T13:08:48.403Z,78.60
2023-05-11T13:11:25.748Z,78.50
2023-05-11T13:13:57.265Z,78.30
2023-05-11T13:16:32.943Z,78.20
2023-05-11T13:19:00.669Z,78.00
2023-05-11T13:21:29.410Z,78.00
2023-05-11T13:23:56.890Z,78.60
2023-05-11T13:26:26.438Z,78.10
2023-05-11T13:29:08.695Z,78.10
2023-05-11T13:31:44.005Z,78.30
2023-05-11T13:34:10.886Z,78.50
2023-05-11T13:36:38.346Z,78.50
2023-05-11T13:39:05.536Z,78.50
2023-05-11T13:41:33.022Z,78.30
2023-05-11T13:44:00.269Z,78.30
2023-05-11T13:46:27.179Z,78.40
2023-05-11T13:48:54.934Z,78.60
2023-05-11T13:51:22.356Z,78.90
2023-05-11T13:53:49.173Z,78.90
2023-05-11T13:56:16.695Z,79.00
2023-05-11T13:58:43.540Z,79.30
2023-05-11T14:01:11.213Z,79.50
2023-05-11T14:03:39.612Z,79.60
2023-05-11T14:06:06.673Z,79.60
2023-05-11T14:08:33.609Z,79.70
2023-05-11T14:11:00.694Z,80.00
2023-05-11T14:13:27.697Z,79.90
2023-05-11T14:15:54.539Z,79.70
2023-05-11T14:18:21.587Z,79.50
2023-05-11T14:20:48.439Z,79.30
2023-05-11T14:23:15.435Z,79.20
2023-05-11T14:25:42.192Z,79.10
2023-05-11T14:28:10.302Z,78.90
2023-05-11T14:30:37.266Z,78.90
2023-05-11T14:33:04.254Z,78.90
2023-05-11T14:35:31.186Z,78.80
2023-05-11T14:37:58.497Z,78.90
2023-05-11T14:40:25.398Z,79.00
2023-05-11T14:42:52.845Z,79.10
2023-05-11T14:45:19.988Z,79.30
2023-05-11T14:47:47.008Z,79.30
2023-05-11T14:50:14.144Z,79.30
2023-05-11T14:52:40.979Z,79.20
2023-05-11T14:55:08.336Z,79.30
2023-05-11T14:57:35.074Z,79.30
2023-05-11T15:00:01.924Z,79.40
2023-05-11T15:02:29.122Z,79.50
2023-05-11T15:04:56.029Z,79.50
2023-05-11T15:07:22.920Z,79.70
2023-05-11T15:09:50.795Z,79.80
2023-05-11T15:12:18.025Z,79.90
2023-05-11T15:14:44.677Z,79.70
2023-05-11T15:17:11.566Z,79.60
2023-05-11T15:19:38.425Z,79.50
2023-05-11T15:22:06.172Z,79.70
2023-05-11T15:24:33.939Z,79.80
2023-05-11T15:27:01.137Z,79.70
2023-05-11T15:29:28.031Z,79.90
2023-05-11T15:31:54.887Z,79.90
2023-05-11T15:34:22.028Z,79.30
2023-05-11T15:36:49.974Z,78.90
2023-05-11T15:39:20.048Z,78.50
2023-05-11T15:41:46.926Z,77.70
2023-05-11T15:44:13.789Z,77.10
2023-05-11T15:46:40.559Z,76.80
2023-05-11T15:49:07.742Z,76.40
2023-05-11T15:51:34.616Z,75.70
2023-05-11T15:54:01.462Z,74.90
2023-05-11T15:56:28.260Z,74.70
2023-05-11T15:58:56.054Z,75.00
2023-05-11T16:01:22.845Z,75.10
2023-05-11T16:03:49.807Z,74.90
2023-05-11T16:06:16.680Z,74.30
2023-05-11T16:08:44.909Z,73.70
2023-05-11T16:11:11.653Z,72.90
2023-05-11T16:13:38.471Z,72.40
2023-05-11T16:16:05.713Z,72.20
2023-05-11T16:18:32.802Z,71.90
2023-05-11T16:20:59.818Z,71.90
2023-05-11T16:23:26.659Z,71.80
2023-05-11T16:25:53.474Z,71.80
2023-05-11T16:28:20.382Z,72.10
2023-05-11T16:30:49.743Z,72.40
2023-05-11T16:33:16.930Z,72.30
2023-05-11T16:35:43.741Z,72.50
2023-05-11T16:38:21.694Z,72.30
2023-05-11T16:40:49.755Z,72.20
2023-05-11T16:43:17.406Z,72.10
2023-05-11T16:45:44.688Z,71.90
2023-05-11T16:48:12.090Z,71.40
2023-05-11T16:50:38.889Z,71.10
2023-05-11T16:53:05.928Z,71.10
2023-05-11T16:55:33.178Z,71.20
2023-05-11T16:58:00.164Z,71.30
2023-05-11T17:00:28.252Z,71.50
2023-05-11T17:02:55.368Z,71.60
2023-05-11T17:05:23.415Z,71.70
2023-05-11T17:07:50.367Z,71.90
2023-05-11T17:10:17.608Z,72.10
2023-05-11T17:12:44.661Z,72.30
2023-05-11T17:15:11.940Z,72.40
2023-05-11T17:17:39.806Z,72.70
2023-05-11T17:20:07.893Z,72.70
2023-05-11T17:22:35.268Z,72.70
2023-05-11T17:25:05.446Z,72.60
2023-05-11T17:27:32.512Z,72.60
2023-05-11T17:29:59.357Z,72.70
2023-05-11T17:32:27.733Z,72.70
2023-05-11T17:34:54.696Z,72.70
2023-05-11T17:37:31.357Z,72.80
2023-05-11T17:39:59.703Z,72.90
2023-05-11T17:42:26.816Z,73.00
2023-05-11T17:44:55.347Z,73.10
2023-05-11T17:47:22.376Z,73.30
2023-05-11T17:49:49.313Z,73.30
2023-05-11T17:52:16.198Z,73.40
2023-05-11T17:54:42.918Z,73.50
2023-05-11T17:57:09.771Z,73.60
2023-05-11T17:59:36.481Z,73.90
2023-05-11T18:02:03.349Z,74.10
2023-05-11T18:04:30.256Z,74.10
2023-05-11T18:06:58.090Z,74.00
2023-05-11T18:09:24.983Z,74.10
2023-05-11T18:11:51.747Z,74.40
2023-05-11T18:14:18.618Z,74.60
2023-05-11T18:16:45.409Z,74.80
2023-05-11T18:19:12.217Z,75.00
2023-05-11T18:21:40.323Z,75.20
2023-05-11T18:24:07.590Z,75.40
2023-05-11T18:26:34.316Z,75.50
2023-05-11T18:29:02.059Z,75.70
2023-05-11T18:31:32.373Z,75.90
2023-05-11T18:33:59.200Z,76.10
2023-05-11T18:36:26.410Z,76.30
2023-05-11T18:38:53.964Z,76.40
2023-05-11T18:41:20.840Z,76.40
2023-05-11T18:43:48.490Z,76.50
2023-05-11T18:46:15.342Z,76.50
2023-05-11T18:48:42.412Z,76.90
2023-05-11T18:51:09.818Z,76.80
2023-05-11T18:53:36.846Z,76.80
2023-05-11T18:56:03.714Z,76.80
2023-05-11T18:58:30.639Z,77.00
2023-05-11T19:00:57.370Z,77.00
2023-05-11T19:03:24.616Z,77.10
2023-05-11T19:05:51.592Z,77.20
2023-05-11T19:08:18.887Z,77.20
2023-05-11T19:10:47.836Z,77.30
2023-05-11T19:13:14.825Z,77.30
2023-05-11T19:15:41.629Z,77.40
2023-05-11T19:18:08.505Z,77.50
2023-05-11T19:20:35.392Z,77.60
2023-05-11T19:23:02.712Z,77.70
2023-05-11T19:25:29.658Z,77.70
2023-05-11T19:27:59.919Z,77.80
2023-05-11T19:30:26.786Z,77.90
2023-05-11T19:32:53.681Z,77.90
2023-05-11T19:35:20.892Z,77.90
2023-05-11T19:37:48.408Z,78.10
2023-05-11T19:42:46.629Z,78.20
2023-05-11T19:45:15.251Z,78.20
2023-05-11T19:47:42.270Z,78.30
2023-05-11T19:50:09.659Z,78.40
2023-05-11T19:52:36.988Z,78.50
2023-05-11T19:55:04.529Z,78.50
2023-05-11T19:57:33.776Z,78.70
2023-05-11T20:00:02.041Z,78.80
2023-05-11T20:02:29.054Z,78.80
2023-05-11T20:04:55.920Z,78.90
2023-05-11T20:07:23.187Z,78.90
2023-05-11T20:09:49.978Z,78.90
2023-05-11T20:12:16.766Z,79.00
2023-05-11T20:14:43.777Z,79.00
2023-05-11T20:17:10.621Z,79.20
2023-05-11T20:19:37.554Z,79.30
2023-05-11T20:22:05.022Z,79.40
2023-05-11T20:24:31.843Z,79.30
2023-05-11T20:26:58.594Z,79.40
2023-05-11T20:29:25.493Z,79.60
2023-05-11T20:31:52.365Z,79.60
2023-05-11T20:34:19.653Z,79.70
2023-05-11T20:36:48.811Z,79.80
2023-05-11T20:39:17.361Z,79.80
2023-05-11T20:41:44.262Z,79.90
2023-05-11T20:44:14.075Z,79.90
2023-05-11T20:46:41.334Z,79.90
2023-05-11T20:49:09.209Z,79.90
2023-05-11T20:51:36.307Z,80.00
2023-05-11T20:54:03.299Z,79.90
2023-05-11T20:56:30.440Z,80.00
2023-05-11T20:58:57.231Z,80.00
2023-05-11T21:01:24.096Z,80.00
2023-05-11T21:03:51.452Z,80.10
2023-05-11T21:06:18.437Z,80.10
2023-05-11T21:08:45.318Z,80.10
2023-05-11T21:11:12.109Z,80.20
2023-05-11T21:13:38.913Z,80.20
2023-05-11T21:16:06.256Z,80.10
2023-05-11T21:18:34.396Z,80.20
2023-05-11T21:21:04.520Z,80.30
2023-05-11T21:23:31.347Z,80.30
2023-05-11T21:25:58.989Z,80.40
2023-05-11T21:28:29.632Z,80.40
2023-05-11T21:30:58.269Z,80.30
2023-05-11T21:33:25.037Z,80.40
2023-05-11T21:35:51.823Z,80.40
2023-05-11T21:38:19.315Z,80.40
2023-05-11T21:40:51.991Z,80.50
2023-05-11T21:43:19.501Z,80.50
2023-05-11T21:45:47.316Z,80.50
2023-05-11T21:48:15.124Z,80.60
2023-05-11T21:50:43.258Z,80.60
2023-05-11T21:53:10.472Z,80.60
2023-05-11T21:55:37.258Z,80.70
2023-05-11T21:58:04.253Z,80.70
2023-05-11T22:00:32.757Z,80.70
2023-05-11T22:02:59.990Z,80.80
2023-05-11T22:05:27.080Z,80.70
2023-05-11T22:08:00.393Z,80.80
2023-05-11T22:10:33.827Z,80.70
2023-05-11T22:13:00.640Z,80.80
2023-05-11T22:15:28.054Z,80.70
2023-05-11T22:17:55.144Z,80.80
2023-05-11T22:20:22.141Z,80.80
2023-05-11T22:22:49.061Z,80.80
2023-05-11T22:25:15.748Z,80.80
2023-05-11T22:27:42.850Z,80.90
2023-05-11T22:30:10.371Z,80.90
2023-05-11T22:32:37.193Z,81.00
2023-05-11T22:35:04.637Z,81.10
2023-05-11T22:37:31.854Z,81.00
2023-05-11T22:39:58.876Z,81.10
2023-05-11T22:42:25.748Z,81.10
2023-05-11T22:44:52.592Z,81.10
2023-05-11T22:47:19.500Z,81.10
2023-05-11T22:49:46.374Z,81.10
2023-05-11T22:52:13.471Z,81.10
2023-05-11T22:54:40.370Z,81.10
2023-05-11T22:57:07.245Z,81.00
2023-05-11T22:59:34.713Z,81.10
2023-05-11T23:02:03.320Z,81.10
2023-05-11T23:04:32.040Z,81.10
2023-05-11T23:06:59.830Z,81.10
2023-05-11T23:09:27.645Z,81.00
2023-05-11T23:11:54.567Z,81.10
2023-05-11T23:14:21.662Z,81.00
2023-05-11T23:16:48.456Z,81.00
2023-05-11T23:19:15.224Z,81.00
2023-05-11T23:21:42.102Z,81.10
2023-05-11T23:24:08.936Z,81.10
2023-05-11T23:26:36.809Z,81.00
2023-05-11T23:29:03.987Z,81.00
2023-05-11T23:31:32.627Z,81.00
2023-05-11T23:34:00.124Z,80.90
2023-05-11T23:36:27.377Z,80.90
2023-05-11T23:38:54.757Z,80.90
2023-05-11T23:41:22.356Z,80.80
2023-05-11T23:43:49.511Z,80.70
2023-05-11T23:46:16.304Z,80.80
2023-05-11T23:48:43.202Z,80.70
2023-05-11T23:51:10.431Z,80.70
2023-05-11T23:53:38.110Z,80.70
2023-05-11T23:56:05.320Z,80.80
2023-05-11T23:58:32.564Z,80.80
